createdAt,value
2019-03-28T00:03:56.384Z,4.88
2019-03-28T00:08:52.913Z,4.74
2019-03-28T00:13:49.612Z,4.69
2019-03-28T00:18:46.163Z,4.70
2019-03-28T00:24:03.500Z,4.34
2019-03-28T00:29:00.046Z,4.42
2019-03-28T00:33:56.737Z,4.45
2019-03-28T00:38:53.305Z,4.38
2019-03-28T00:43:50.008Z,4.10
2019-03-28T00:48:46.612Z,4.39
2019-03-28T00:53:43.161Z,4.65
2019-03-28T00:58:39.738Z,4.76
2019-03-28T01:03:36.587Z,4.81
2019-03-28T01:08:33.080Z,4.99
2019-03-28T01:13:29.627Z,4.95
2019-03-28T01:18:26.259Z,4.92
2019-03-28T01:23:22.748Z,4.63
2019-03-28T01:28:19.289Z,4.52
2019-03-28T01:33:15.908Z,4.41
2019-03-28T01:38:12.422Z,4.37
2019-03-28T01:43:08.939Z,4.34
2019-03-28T01:48:05.423Z,4.28
2019-03-28T01:53:02.087Z,4.41
2019-03-28T01:57:58.703Z,4.43
2019-03-28T02:02:55.225Z,4.25
2019-03-28T02:07:51.746Z,4.18
2019-03-28T02:12:48.402Z,4.10
2019-03-28T02:17:44.967Z,4.25
2019-03-28T02:22:41.599Z,4.18
2019-03-28T02:27:38.125Z,4.17
2019-03-28T02:32:34.655Z,4.37
2019-03-28T02:37:31.205Z,4.58
2019-03-28T02:42:28.136Z,4.02
2019-03-28T02:47:24.767Z,3.71
2019-03-28T02:52:21.696Z,3.76
2019-03-28T02:57:18.476Z,3.64
2019-03-28T03:02:15.004Z,3.87
2019-03-28T03:07:11.573Z,3.76
2019-03-28T03:12:08.103Z,3.61
2019-03-28T03:17:04.711Z,3.34
2019-03-28T03:22:01.282Z,3.36
2019-03-28T03:26:57.826Z,3.56
2019-03-28T03:31:54.405Z,3.21
2019-03-28T03:36:51.136Z,3.13
2019-03-28T03:41:47.765Z,3.17
2019-03-28T03:46:44.396Z,3.05
2019-03-28T03:51:41.164Z,3.19
2019-03-28T03:56:37.963Z,3.08
2019-03-28T04:01:34.584Z,3.13
2019-03-28T04:06:31.161Z,3.11
2019-03-28T04:11:27.768Z,3.11
2019-03-28T04:16:24.350Z,3.07
2019-03-28T04:21:21.029Z,3.01
2019-03-28T04:26:19.679Z,2.99
2019-03-28T04:31:16.324Z,2.29
2019-03-28T04:36:12.988Z,2.31
2019-03-28T04:41:09.561Z,2.53
2019-03-28T04:46:06.250Z,2.67
2019-03-28T04:51:02.866Z,2.68
2019-03-28T04:55:59.555Z,2.80
2019-03-28T05:00:56.197Z,2.96
2019-03-28T05:05:52.837Z,3.02
2019-03-28T05:10:49.464Z,3.15
2019-03-28T05:15:46.090Z,2.80
2019-03-28T05:20:42.650Z,2.71
2019-03-28T05:25:39.262Z,2.66
2019-03-28T05:30:35.830Z,2.61
2019-03-28T05:35:32.409Z,2.55
2019-03-28T05:40:29.053Z,2.87
2019-03-28T05:45:25.692Z,3.06
2019-03-28T05:50:22.339Z,3.15
2019-03-28T05:55:19.017Z,3.23
2019-03-28T06:00:15.958Z,3.24
2019-03-28T06:05:12.735Z,3.56
2019-03-28T06:10:10.463Z,3.61
2019-03-28T06:15:09.687Z,3.97
2019-03-28T06:20:13.043Z,4.04
2019-03-28T06:25:10.817Z,4.26
2019-03-28T06:30:11.138Z,4.46
2019-03-28T06:35:09.099Z,4.78
2019-03-28T06:40:06.529Z,4.84
2019-03-28T06:45:04.010Z,4.99
2019-03-28T06:50:00.922Z,5.33
2019-03-28T06:54:57.587Z,5.42
2019-03-28T06:59:54.307Z,5.53
2019-03-28T07:04:50.982Z,5.73
2019-03-28T07:09:47.667Z,6.07
2019-03-28T07:14:45.768Z,6.28
2019-03-28T07:19:43.965Z,6.30
2019-03-28T07:24:42.748Z,6.46
2019-03-28T07:29:50.191Z,6.88
2019-03-28T07:34:45.343Z,7.14
2019-03-28T07:39:44.817Z,7.31
2019-03-28T07:44:44.811Z,7.48
2019-03-28T07:49:41.690Z,7.74
2019-03-28T08:00:50.241Z,8.56
2019-03-28T08:05:46.943Z,8.91
2019-03-28T08:10:43.593Z,9.11
2019-03-28T08:15:40.396Z,9.59
2019-03-28T08:20:39.881Z,10.26
2019-03-28T08:25:36.623Z,10.55
2019-03-28T08:30:39.606Z,10.37
2019-03-28T08:35:37.465Z,10.76
2019-03-28T08:47:35.680Z,11.17
2019-03-28T08:52:30.571Z,11.55
2019-03-28T09:04:03.156Z,11.93
2019-03-28T09:09:42.239Z,11.99
2019-03-28T09:15:25.701Z,11.84
2019-03-28T09:21:47.531Z,12.30
2019-03-28T09:27:29.906Z,12.52
2019-03-28T09:33:23.497Z,12.27
2019-03-28T09:39:24.720Z,12.62
2019-03-28T09:44:54.021Z,12.56
2019-03-28T09:51:04.603Z,12.61
2019-03-28T10:02:31.749Z,12.85
2019-03-28T10:08:03.547Z,12.42
2019-03-28T10:13:17.309Z,12.62
2019-03-28T10:18:42.635Z,12.55
2019-03-28T10:24:19.969Z,12.82
2019-03-28T10:30:16.638Z,12.98
2019-03-28T10:36:32.746Z,12.91
2019-03-28T10:41:31.290Z,13.03
2019-03-28T10:46:56.127Z,13.09
2019-03-28T10:53:09.882Z,13.05
2019-03-28T10:57:51.269Z,13.19
2019-03-28T11:02:50.476Z,13.21
2019-03-28T11:07:50.527Z,13.31
2019-03-28T11:12:53.194Z,13.28
2019-03-28T11:17:54.459Z,13.35
2019-03-28T11:23:11.815Z,13.50
2019-03-28T11:28:11.703Z,13.50
2019-03-28T11:33:17.191Z,13.49
2019-03-28T11:38:14.410Z,13.63
2019-03-28T11:43:14.102Z,13.62
2019-03-28T11:48:25.143Z,13.77
2019-03-28T11:53:42.911Z,13.63
2019-03-28T11:58:52.132Z,13.75
2019-03-28T12:03:56.568Z,13.81
2019-03-28T12:09:13.063Z,13.73
2019-03-28T12:14:10.076Z,13.80
2019-03-28T12:19:07.982Z,13.84
2019-03-28T12:24:12.071Z,13.84
2019-03-28T12:29:31.856Z,13.94
2019-03-28T12:34:32.037Z,13.78
2019-03-28T12:40:00.107Z,13.85
2019-03-28T12:45:46.538Z,13.83
2019-03-28T12:50:23.665Z,13.79
2019-03-28T12:55:45.489Z,13.76
2019-03-28T13:00:43.462Z,13.63
2019-03-28T13:05:45.373Z,13.59
2019-03-28T13:10:42.196Z,13.54
2019-03-28T13:15:58.487Z,13.61
2019-03-28T13:21:12.798Z,13.69
2019-03-28T13:26:09.928Z,13.81
2019-03-28T13:31:14.220Z,13.73
2019-03-28T13:36:10.875Z,13.73
2019-03-28T13:41:07.792Z,13.82
2019-03-28T13:46:05.468Z,13.85
2019-03-28T13:51:03.637Z,13.78
2019-03-28T13:56:03.155Z,13.70
2019-03-28T14:00:59.720Z,13.84
2019-03-28T14:06:26.068Z,13.82
2019-03-28T14:11:52.900Z,13.89
2019-03-28T14:16:44.078Z,13.97
2019-03-28T14:21:42.486Z,13.85
2019-03-28T14:26:44.080Z,13.90
2019-03-28T14:31:42.985Z,13.95
2019-03-28T14:36:47.284Z,14.04
2019-03-28T14:41:46.638Z,14.09
2019-03-28T14:46:43.612Z,14.05
2019-03-28T14:51:49.936Z,14.13
2019-03-28T14:56:49.812Z,14.07
2019-03-28T15:02:05.274Z,14.10
2019-03-28T15:07:07.278Z,14.18
2019-03-28T15:12:03.616Z,14.22
2019-03-28T15:17:00.707Z,14.04
2019-03-28T15:22:06.612Z,13.95
2019-03-28T15:27:06.880Z,13.87
2019-03-28T15:32:13.215Z,13.83
2019-03-28T15:37:09.995Z,13.75
2019-03-28T15:42:06.923Z,13.84
2019-03-28T15:47:04.732Z,13.83
2019-03-28T15:52:05.267Z,13.77
2019-03-28T15:57:13.053Z,13.68
2019-03-28T16:02:10.015Z,13.66
2019-03-28T16:07:07.731Z,13.59
2019-03-28T16:12:06.546Z,13.65
2019-03-28T16:17:07.442Z,13.56
2019-03-28T16:22:11.600Z,13.56
2019-03-28T16:27:20.483Z,13.47
2019-03-28T16:32:17.550Z,13.37
2019-03-28T16:37:14.442Z,13.36
2019-03-28T16:42:28.936Z,13.27
2019-03-28T16:47:55.647Z,13.17
2019-03-28T16:53:12.158Z,13.20
2019-03-28T16:58:16.489Z,13.05
2019-03-28T17:03:24.441Z,12.91
2019-03-28T17:08:25.870Z,12.83
2019-03-28T17:13:22.889Z,12.83
2019-03-28T17:18:24.679Z,12.69
2019-03-28T17:23:28.733Z,12.54
2019-03-28T17:28:27.440Z,12.48
2019-03-28T17:33:29.287Z,12.47
2019-03-28T17:38:28.400Z,12.41
2019-03-28T17:43:25.137Z,12.36
2019-03-28T17:48:23.171Z,12.25
2019-03-28T17:53:23.962Z,12.11
2019-03-28T17:58:19.826Z,12.03
2019-03-28T18:03:30.223Z,11.95
2019-03-28T18:08:22.101Z,11.92
2019-03-28T18:13:27.295Z,11.82
2019-03-28T18:18:25.501Z,11.74
2019-03-28T18:23:26.223Z,11.59
2019-03-28T18:28:31.250Z,11.48
2019-03-28T18:33:35.242Z,11.47
2019-03-28T18:38:56.727Z,11.47
2019-03-28T18:44:05.347Z,11.39
2019-03-28T18:49:14.092Z,11.33
2019-03-28T18:54:21.592Z,11.25
2019-03-28T18:59:21.148Z,11.18
2019-03-28T19:04:20.065Z,11.14
2019-03-28T19:09:17.005Z,11.09
2019-03-28T19:14:15.073Z,11.06
2019-03-28T19:19:16.301Z,10.88
2019-03-28T19:24:22.940Z,10.90
2019-03-28T19:29:21.123Z,10.85
2019-03-28T19:34:30.296Z,10.88
2019-03-28T19:39:39.447Z,10.83
2019-03-28T19:44:55.021Z,10.80
2019-03-28T19:50:35.351Z,10.80
2019-03-28T19:55:39.607Z,10.65
2019-03-28T20:06:27.704Z,10.60
2019-03-28T20:11:28.894Z,10.56
2019-03-28T20:16:27.978Z,10.54
2019-03-28T20:21:26.255Z,10.33
2019-03-28T20:26:26.603Z,10.27
2019-03-28T20:37:37.848Z,10.40
2019-03-28T20:42:45.738Z,10.32
2019-03-28T20:47:53.341Z,10.27
2019-03-28T20:53:06.178Z,10.09
2019-03-28T20:58:11.928Z,10.14
2019-03-28T21:03:16.342Z,10.24
2019-03-28T21:08:13.246Z,10.22
2019-03-28T21:13:20.651Z,10.16
2019-03-28T21:18:13.083Z,10.15
2019-03-28T21:23:10.235Z,10.15
2019-03-28T21:28:20.519Z,10.15
2019-03-28T21:33:26.032Z,10.08
2019-03-28T21:39:08.351Z,9.98
2019-03-28T21:44:41.632Z,9.95
2019-03-28T21:49:45.392Z,9.84
2019-03-28T21:54:45.430Z,9.87
2019-03-28T21:59:53.169Z,9.78
2019-03-28T22:04:55.065Z,9.82
2019-03-28T22:10:11.613Z,9.78
2019-03-28T22:15:15.353Z,9.75
2019-03-28T22:20:19.359Z,9.78
2019-03-28T22:25:16.128Z,9.55
2019-03-28T22:30:16.544Z,9.59
2019-03-28T22:35:23.450Z,9.51
2019-03-28T22:40:25.110Z,9.53
2019-03-28T22:45:27.329Z,9.37
2019-03-28T22:50:36.385Z,9.28
2019-03-28T22:56:04.183Z,9.19
2019-03-28T23:01:03.676Z,9.17
2019-03-28T23:06:01.752Z,9.02
2019-03-28T23:11:04.531Z,9.07
2019-03-28T23:16:11.342Z,8.98
2019-03-28T23:21:08.235Z,8.93
2019-03-28T23:26:10.708Z,8.87
2019-03-28T23:31:25.514Z,8.95
2019-03-28T23:36:34.533Z,8.93
2019-03-28T23:41:52.540Z,8.92
2019-03-28T23:47:02.372Z,8.96
2019-03-28T23:52:20.698Z,8.88
2019-03-28T23:57:58.761Z,8.75
